Cheyney, PA

12:16 PM EST on December 21, 2014 (GMT -0500)
Glen Mills | Change Station
CLOSE
Current Station
Personal Weather Station
Location: Glen Mills, PA
Elevation: 463 ft
Nearby Weather Stations

Elev 463 ft 39.92 °N, 75.52 °W | Updated 4 minutes ago

Partly Cloudy
Partly Cloudy
36.5 °F
Feels Like 32 °F
N
5.0
Wind Variable Wind from North
Gusts 11.0 mph

Today
High -- | Low -- °F
--% Chance of Precip.
Yesterday
High -- | Low -- °F
Precip. -- in
7:20 AM 4:40 PM
Waning Crescent, 0% visible
Pressure 30.32 in
Visibility 10.0 miles
Clouds Few 2500 ft
Scattered Clouds 3500 ft
Windchill 32 °F
Dew Point 25 °F
Humidity 62%
Rainfall 0.00 in
Snow Depth Not available.
UV 2 out of 12
Pollen .10 out of 12
Air Quality Not available.
Flu Activity Not available.
METAR KPHL 211654Z VRB06KT 10SM FEW025 SCT035 04/M06 A3033 RMK AO2 SLP268 T00391061

More Conditions Fewer Conditions

Pressure 30.32 in
Visibility 10.0 miles
Clouds Few 2500 ft
Scattered Clouds 3500 ft
Windchill 32 °F
Dew Point 25 °F
Humidity 62%
Rainfall 0.00 in
Snow Depth Not available.
UV 2 out of 12
Pollen .10 out of 12
Air Quality Not available.
Flu Activity Not available.
METAR KPHL 211654Z VRB06KT 10SM FEW025 SCT035 04/M06 A3033 RMK AO2 SLP268 T00391061

More Conditions Fewer Conditions

10-Day Weather Forecast

Almanac

Astronomy

Dec. 21, 2014 Rise Set
Actual Time
Civil Twilight
Nautical Twilight
Astronomical Twilight
Moon
Length of Visible Light
Length of Day
Tomorrow will be .
, % of the Moon is Illuminated

Today's Extremes

State Highs State Lows

Community

WunderPhotos

Upload Photos

1,779,442 photos uploaded!

WunderBlogs® & News

Nearby

Air Quality

  Air Quality AQ Index Pollutant
Not available.

Snow Depth

Station Depth Elevation

Earthquake Activity

City Distance Mag. Time & Date
Minimum magnitude displayed is 2.5.

Coastal Water Temperatures

Place Temperature

Nearby Weather Stations